createdAt,value
2019-02-23T08:41:45.550Z,97.17
2019-02-23T08:42:44.890Z,95.75
2019-02-23T08:43:44.859Z,94.89
2019-02-23T08:44:44.826Z,95.75
2019-02-23T08:45:44.795Z,94.42
2019-02-23T08:46:44.764Z,92.99
2019-02-23T08:47:45.091Z,93.94
2019-02-23T08:48:44.721Z,92.89
2019-02-23T08:49:44.668Z,92.32
2019-02-23T08:50:44.635Z,91.66
2019-02-23T08:51:44.603Z,92.08
2019-02-23T08:52:49.226Z,92.27
2019-02-23T08:53:44.541Z,90.28
2019-02-23T08:54:44.511Z,89.80
2019-02-23T08:55:44.491Z,89.32
2019-02-23T08:56:44.660Z,89.61
2019-02-23T08:57:44.418Z,90.47
2019-02-23T08:58:44.386Z,89.61
2019-02-23T08:59:44.361Z,89.37
2019-02-23T09:00:44.327Z,88.75
2019-02-23T09:01:44.297Z,88.46
2019-02-23T09:02:44.265Z,88.51
2019-02-23T09:03:44.236Z,88.04
2019-02-23T09:04:44.202Z,86.70
2019-02-23T09:05:44.179Z,86.70
2019-02-23T09:06:44.147Z,85.85
2019-02-23T09:07:44.118Z,86.80
2019-02-23T09:08:44.215Z,85.47
2019-02-23T09:09:44.060Z,89.22
2019-02-23T09:10:44.027Z,86.13
2019-02-23T09:11:43.997Z,87.41
2019-02-23T09:12:43.970Z,87.41
2019-02-23T09:13:43.940Z,88.18
2019-02-23T09:14:43.911Z,87.41
2019-02-23T09:15:43.880Z,84.84
2019-02-23T09:16:43.850Z,86.08
2019-02-23T09:17:43.822Z,85.64
2019-02-23T09:18:43.789Z,84.41
2019-02-23T09:19:43.761Z,86.12
2019-02-23T09:20:43.729Z,85.60
2019-02-23T09:21:43.702Z,83.59
2019-02-23T09:22:43.674Z,80.92
2019-02-23T09:23:43.643Z,82.35
2019-02-23T09:24:43.615Z,81.07
2019-02-23T09:25:43.589Z,83.07
2019-02-23T09:26:43.559Z,83.07
2019-02-23T09:27:43.528Z,82.79
2019-02-23T09:28:43.503Z,82.69
2019-02-23T09:29:43.471Z,82.12
2019-02-23T09:30:43.444Z,81.74
2019-02-23T09:31:43.417Z,82.64
2019-02-23T09:32:43.386Z,82.35
2019-02-23T09:33:43.359Z,82.07
2019-02-23T09:34:43.327Z,80.16
2019-02-23T09:35:43.301Z,79.68
2019-02-23T09:36:43.272Z,79.44
2019-02-23T09:37:43.243Z,79.19
2019-02-23T09:38:43.216Z,77.47
2019-02-23T09:39:43.191Z,76.52
2019-02-23T09:40:43.159Z,76.81
2019-02-23T09:41:43.134Z,76.14
2019-02-23T09:42:43.104Z,75.28
2019-02-23T09:43:43.074Z,75.13
2019-02-23T09:44:43.051Z,74.65
2019-02-23T09:45:43.022Z,75.13
2019-02-23T09:46:42.939Z,74.02
2019-02-23T09:47:42.913Z,73.44
2019-02-23T09:48:42.885Z,72.74
2019-02-23T09:49:42.860Z,72.64
2019-02-23T09:50:42.836Z,73.03
2019-02-23T09:51:42.804Z,73.37
2019-02-23T09:52:42.778Z,74.84
2019-02-23T09:53:42.754Z,74.46
2019-02-23T09:54:42.727Z,73.48
2019-02-23T09:55:42.700Z,71.09
2019-02-23T09:56:42.673Z,69.95
2019-02-23T09:57:42.649Z,70.36
2019-02-23T09:58:42.621Z,69.79
2019-02-23T09:59:42.594Z,69.37
2019-02-23T10:00:42.569Z,69.47
2019-02-23T10:01:42.543Z,69.31
2019-02-23T10:02:42.517Z,68.51
2019-02-23T10:03:42.489Z,69.66
2019-02-23T10:04:42.466Z,70.65
2019-02-23T10:05:42.440Z,68.45
2019-02-23T10:06:42.421Z,66.63
2019-02-23T10:07:42.386Z,66.57
2019-02-23T10:08:42.360Z,66.38
2019-02-23T10:09:42.333Z,65.14
2019-02-23T10:10:42.314Z,64.47
2019-02-23T10:11:42.288Z,64.79
2019-02-23T10:12:42.258Z,64.69
2019-02-23T10:13:42.231Z,64.85
2019-02-23T10:14:42.206Z,66.00
2019-02-23T10:15:42.177Z,65.26
2019-02-23T10:16:42.156Z,64.37
2019-02-23T10:17:42.130Z,64.75
2019-02-23T10:18:42.104Z,64.66
2019-02-23T10:19:42.076Z,64.85
2019-02-23T10:20:42.052Z,64.31
2019-02-23T10:21:42.028Z,64.28
2019-02-23T10:22:42.059Z,63.70
2019-02-23T10:23:42.032Z,64.18
2019-02-23T10:24:42.008Z,64.37
2019-02-23T10:25:41.928Z,63.51
2019-02-23T10:26:41.900Z,64.12
2019-02-23T10:27:41.929Z,63.06
2019-02-23T10:28:41.853Z,61.34
2019-02-23T10:29:41.882Z,62.49
2019-02-23T10:30:41.856Z,62.33
2019-02-23T10:31:41.776Z,61.57
2019-02-23T10:32:41.806Z,61.76
2019-02-23T10:33:47.570Z,61.18
2019-02-23T10:34:41.754Z,60.44
2019-02-23T10:35:41.731Z,59.94
2019-02-23T10:36:41.705Z,59.84
2019-02-23T10:37:41.681Z,60.41
2019-02-23T10:38:41.657Z,59.81
2019-02-23T10:39:41.630Z,60.10
2019-02-23T10:40:41.608Z,61.31
2019-02-23T10:41:41.583Z,62.14
